Time;durP1;ratioP1;P1;durP2;ratioP2;P2;SDS_P1;SDS_P2;PMS_P1;PMS_P2;Temp;Humidity;BMP_temperature;BMP_pressure;BME280_temperature;BME280_humidity;BME280_pressure;Samples;Min_cycle;Max_cycle;Signal;HPM_P1;HPM_P2
2022/02/18 00:01:55;;;;;;;0.20;0.20;;;;;;;;;;5019439;28;20030;-58
2022/02/18 00:04:21;;;;;;;1.88;0.43;;;;;;;;;;5018111;28;20034;-58
2022/02/18 00:06:46;;;;;;;2.03;0.32;;;;;;;;;;5024002;28;20032;-59
2022/02/18 00:09:11;;;;;;;2.67;0.50;;;;;;;;;;5023266;28;20499;-59
2022/02/18 00:11:37;;;;;;;0.68;0.30;;;;;;;;;;5017092;28;20114;-59
2022/02/18 00:14:03;;;;;;;4.88;0.60;;;;;;;;;;5023385;28;20041;-59
2022/02/18 00:16:28;;;;;;;3.63;0.50;;;;;;;;;;5029458;28;20042;-58
2022/02/18 00:18:53;;;;;;;5.13;0.88;;;;;;;;;;5021885;28;20063;-57
2022/02/18 00:21:19;;;;;;;3.25;0.40;;;;;;;;;;5027696;28;20029;-57
2022/02/18 00:23:45;;;;;;;1.08;0.28;;;;;;;;;;5025975;28;20036;-58
2022/02/18 00:26:11;;;;;;;2.75;0.20;;;;;;;;;;5024132;28;20071;-58
2022/02/18 00:28:36;;;;;;;4.93;0.70;;;;;;;;;;5022647;28;20065;-58
2022/02/18 00:31:02;;;;;;;5.50;0.73;;;;;;;;;;5021107;28;20091;-58
2022/02/18 00:33:28;;;;;;;6.75;0.55;;;;;;;;;;5021634;28;20507;-58
2022/02/18 00:35:53;;;;;;;4.30;0.40;;;;;;;;;;5029199;28;20072;-55
2022/02/18 00:38:19;;;;;;;1.77;0.28;;;;;;;;;;5024020;28;20033;-59
2022/02/18 00:40:45;;;;;;;3.28;0.40;;;;;;;;;;5022579;28;20036;-55
2022/02/18 00:43:11;;;;;;;3.85;0.57;;;;;;;;;;5024466;28;20029;-56
2022/02/18 00:45:37;;;;;;;4.28;0.38;;;;;;;;;;5019378;28;20067;-60
2022/02/18 00:48:02;;;;;;;1.23;0.45;;;;;;;;;;5028426;28;20102;-55
2022/02/18 00:50:28;;;;;;;7.07;0.68;;;;;;;;;;5027193;28;20041;-57
2022/02/18 00:52:53;;;;;;;3.20;0.40;;;;;;;;;;5022353;28;20110;-55
2022/02/18 00:55:19;;;;;;;11.50;0.60;;;;;;;;;;5026257;28;20231;-55
2022/02/18 00:57:45;;;;;;;1.30;0.25;;;;;;;;;;5024032;28;20034;-56
2022/02/18 01:00:16;;;;;;;6.40;0.32;;;;;;;;;;5001848;28;20042;-53
2022/02/18 01:02:42;;;;;;;2.80;0.73;;;;;;;;;;4980512;28;20097;-56
2022/02/18 01:05:07;;;;;;;4.68;0.55;;;;;;;;;;5016877;28;20030;-56
2022/02/18 01:07:33;;;;;;;4.30;0.60;;;;;;;;;;4986136;28;20027;-54
2022/02/18 01:09:59;;;;;;;4.22;0.73;;;;;;;;;;4979170;28;20642;-56
2022/02/18 01:12:24;;;;;;;6.22;0.60;;;;;;;;;;4983092;28;20038;-56
2022/02/18 01:14:50;;;;;;;5.18;0.40;;;;;;;;;;4985172;28;20064;-59
2022/02/18 01:17:16;;;;;;;2.17;0.20;;;;;;;;;;4985099;28;20478;-57
2022/02/18 01:19:42;;;;;;;5.90;0.68;;;;;;;;;;4980875;28;20101;-60
2022/02/18 01:22:07;;;;;;;4.57;0.52;;;;;;;;;;4975896;28;20567;-59
2022/02/18 01:24:33;;;;;;;7.05;0.65;;;;;;;;;;4982794;28;20516;-57
2022/02/18 01:26:58;;;;;;;2.80;0.50;;;;;;;;;;4984933;28;20036;-60
2022/02/18 01:29:24;;;;;;;6.70;0.63;;;;;;;;;;4978816;28;20042;-59
2022/02/18 01:31:49;;;;;;;2.58;0.30;;;;;;;;;;4980916;28;20038;-62
2022/02/18 01:34:15;;;;;;;5.75;0.55;;;;;;;;;;4980334;28;20068;-62
2022/02/18 01:36:41;;;;;;;3.25;0.75;;;;;;;;;;4977324;28;20077;-62
2022/02/18 01:39:06;;;;;;;7.13;0.65;;;;;;;;;;4986396;28;20038;-62
2022/02/18 01:41:32;;;;;;;8.20;0.95;;;;;;;;;;4978983;28;20049;-62
2022/02/18 01:44:00;;;;;;;5.88;0.82;;;;;;;;;;4979734;28;20038;-62
2022/02/18 01:46:26;;;;;;;2.75;1.02;;;;;;;;;;4978820;28;20113;-61
2022/02/18 01:48:53;;;;;;;11.20;0.77;;;;;;;;;;4982599;28;20045;-62
2022/02/18 01:51:21;;;;;;;9.63;0.57;;;;;;;;;;4979301;28;20489;-62
2022/02/18 01:53:48;;;;;;;9.15;0.70;;;;;;;;;;4975571;28;20121;-62
2022/02/18 01:56:14;;;;;;;2.17;0.40;;;;;;;;;;4983595;28;20062;-63
2022/02/18 01:58:41;;;;;;;4.40;0.57;;;;;;;;;;4982138;28;20054;-63
2022/02/18 02:01:09;;;;;;;8.13;0.85;;;;;;;;;;4978099;28;20489;-62
2022/02/18 02:03:36;;;;;;;6.28;0.73;;;;;;;;;;4983378;28;20042;-62
2022/02/18 02:06:03;;;;;;;1.95;0.43;;;;;;;;;;4977010;28;20259;-63
2022/02/18 02:08:28;;;;;;;3.15;0.82;;;;;;;;;;4978190;28;20062;-62
2022/02/18 02:10:55;;;;;;;1.98;0.30;;;;;;;;;;4980381;28;20035;-62
2022/02/18 02:13:32;;;;;;;1.70;0.40;;;;;;;;;;4973592;28;20273;-62
2022/02/18 02:15:58;;;;;;;1.88;0.43;;;;;;;;;;4977655;28;21589;-63
2022/02/18 02:18:23;;;;;;;1.50;0.40;;;;;;;;;;4981169;28;20031;-63
2022/02/18 02:20:49;;;;;;;3.67;0.40;;;;;;;;;;4983973;28;20030;-63
2022/02/18 02:23:15;;;;;;;2.28;0.38;;;;;;;;;;4976634;28;20054;-63
2022/02/18 02:25:41;;;;;;;6.35;0.45;;;;;;;;;;4982756;28;20177;-63
2022/02/18 02:28:07;;;;;;;1.33;0.40;;;;;;;;;;4980156;28;20496;-63
2022/02/18 02:30:32;;;;;;;1.67;0.50;;;;;;;;;;4979824;28;20038;-63
2022/02/18 02:32:58;;;;;;;3.20;0.30;;;;;;;;;;4975150;28;20540;-63
2022/02/18 02:35:23;;;;;;;2.03;0.30;;;;;;;;;;5011947;28;20058;-63
2022/02/18 02:37:49;;;;;;;1.95;0.50;;;;;;;;;;4982712;28;20516;-63
2022/02/18 02:40:18;;;;;;;2.30;0.40;;;;;;;;;;4984320;28;20087;-63
2022/02/18 02:42:45;;;;;;;1.42;0.32;;;;;;;;;;4978926;28;20062;-63
2022/02/18 02:45:11;;;;;;;4.82;0.40;;;;;;;;;;4979123;28;20076;-60
2022/02/18 02:47:38;;;;;;;3.22;0.50;;;;;;;;;;4980556;28;20081;-60
2022/02/18 02:50:04;;;;;;;7.07;1.27;;;;;;;;;;4982104;28;20053;-60
2022/02/18 02:52:30;;;;;;;6.93;0.75;;;;;;;;;;4979007;28;20049;-61
2022/02/18 02:54:56;;;;;;;13.00;1.30;;;;;;;;;;4977976;28;20031;-59
2022/02/18 02:57:21;;;;;;;14.80;1.75;;;;;;;;;;4982901;28;20104;-59
2022/02/18 02:59:47;;;;;;;15.90;1.42;;;;;;;;;;4980862;28;20468;-60
2022/02/18 03:02:13;;;;;;;22.35;3.40;;;;;;;;;;4977630;28;20088;-60
2022/02/18 03:04:38;;;;;;;16.83;2.65;;;;;;;;;;4980795;28;20085;-60
2022/02/18 03:07:04;;;;;;;21.48;2.33;;;;;;;;;;4980565;28;20064;-58
2022/02/18 03:09:30;;;;;;;29.05;2.83;;;;;;;;;;4987496;28;20084;-60
2022/02/18 03:11:55;;;;;;;68.93;5.38;;;;;;;;;;4980827;28;20447;-60
2022/02/18 03:14:21;;;;;;;25.40;3.33;;;;;;;;;;4977441;28;20785;-59
2022/02/18 03:16:46;;;;;;;35.10;3.28;;;;;;;;;;4983198;28;20038;-59
2022/02/18 03:19:12;;;;;;;18.45;1.77;;;;;;;;;;4981283;28;20045;-59
2022/02/18 03:21:37;;;;;;;31.90;3.28;;;;;;;;;;4974522;28;20464;-59
2022/02/18 03:24:03;;;;;;;26.65;2.78;;;;;;;;;;4985362;28;20035;-60
2022/02/18 03:26:28;;;;;;;37.25;3.55;;;;;;;;;;4979446;28;20023;-61
2022/02/18 03:28:54;;;;;;;38.83;4.97;;;;;;;;;;4981818;28;20433;-60
2022/02/18 03:31:19;;;;;;;24.08;3.85;;;;;;;;;;4981648;28;20113;-60
2022/02/18 03:33:45;;;;;;;42.00;5.78;;;;;;;;;;4965691;28;20042;-58
2022/02/18 03:36:11;;;;;;;27.10;3.60;;;;;;;;;;4984441;28;20046;-59
2022/02/18 03:38:37;;;;;;;36.60;4.85;;;;;;;;;;4980738;28;20038;-58
2022/02/18 03:41:03;;;;;;;29.10;4.47;;;;;;;;;;4975561;28;20076;-58
2022/02/18 03:43:28;;;;;;;31.77;5.20;;;;;;;;;;4980724;28;20408;-59
2022/02/18 03:45:54;;;;;;;27.05;3.33;;;;;;;;;;4981766;28;20034;-58
2022/02/18 03:48:19;;;;;;;42.13;4.05;;;;;;;;;;4969011;28;20054;-58
2022/02/18 03:50:45;;;;;;;28.02;3.50;;;;;;;;;;4976226;28;20038;-58
2022/02/18 03:53:11;;;;;;;36.42;4.60;;;;;;;;;;4978672;28;20035;-58
2022/02/18 03:55:36;;;;;;;48.28;4.13;;;;;;;;;;4980017;28;20069;-57
2022/02/18 03:58:03;;;;;;;30.52;3.70;;;;;;;;;;4980924;28;20057;-61
2022/02/18 04:00:28;;;;;;;25.67;4.38;;;;;;;;;;4982640;28;20100;-60
2022/02/18 04:02:54;;;;;;;16.85;3.15;;;;;;;;;;4978676;28;20038;-61
2022/02/18 04:05:19;;;;;;;30.73;4.75;;;;;;;;;;4977255;28;20113;-59
2022/02/18 04:07:45;;;;;;;39.15;4.32;;;;;;;;;;4978179;28;20035;-60
2022/02/18 04:10:10;;;;;;;32.22;4.07;;;;;;;;;;4977615;28;20572;-59
2022/02/18 04:12:39;;;;;;;20.38;3.35;;;;;;;;;;4976113;28;20169;-59
2022/02/18 04:15:06;;;;;;;29.98;4.13;;;;;;;;;;4984217;28;20034;-59
2022/02/18 04:17:32;;;;;;;36.88;4.25;;;;;;;;;;4981397;28;20035;-60
2022/02/18 04:19:58;;;;;;;44.67;3.10;;;;;;;;;;4986558;28;20535;-59
2022/02/18 04:22:24;;;;;;;22.25;2.17;;;;;;;;;;4977957;28;20038;-60
2022/02/18 04:24:50;;;;;;;30.92;4.63;;;;;;;;;;4977622;28;20393;-59
2022/02/18 04:27:15;;;;;;;34.38;2.95;;;;;;;;;;4975486;28;20113;-58
2022/02/18 04:29:41;;;;;;;33.92;2.75;;;;;;;;;;4977175;28;20409;-60
2022/02/18 04:32:07;;;;;;;38.38;3.25;;;;;;;;;;4980230;28;20062;-60
2022/02/18 04:34:32;;;;;;;44.97;4.22;;;;;;;;;;4975245;28;20117;-62
2022/02/18 04:36:58;;;;;;;41.25;2.85;;;;;;;;;;4980124;28;21129;-60
2022/02/18 04:39:24;;;;;;;37.22;3.28;;;;;;;;;;4979226;28;20034;-59
2022/02/18 04:41:50;;;;;;;37.63;4.38;;;;;;;;;;4976300;28;20030;-60
2022/02/18 04:44:16;;;;;;;29.17;3.45;;;;;;;;;;4985058;28;20042;-59
2022/02/18 04:46:42;;;;;;;28.65;3.92;;;;;;;;;;4976742;28;20037;-59
2022/02/18 04:49:08;;;;;;;22.42;3.22;;;;;;;;;;4979364;28;20452;-59
2022/02/18 04:51:33;;;;;;;37.17;4.22;;;;;;;;;;5004855;28;20037;-60
2022/02/18 04:53:59;;;;;;;29.45;3.35;;;;;;;;;;4975214;28;20045;-59
2022/02/18 04:56:24;;;;;;;22.35;3.10;;;;;;;;;;4980325;28;20070;-59
2022/02/18 04:58:50;;;;;;;33.20;4.57;;;;;;;;;;4980772;28;20063;-58
2022/02/18 05:01:16;;;;;;;36.88;3.67;;;;;;;;;;4977394;28;20069;-59
2022/02/18 05:03:42;;;;;;;44.00;4.28;;;;;;;;;;4987886;28;20603;-59
2022/02/18 05:06:09;;;;;;;40.10;4.07;;;;;;;;;;4983117;28;20508;-58
2022/02/18 05:08:35;;;;;;;40.75;3.90;;;;;;;;;;4986137;28;20064;-59
2022/02/18 05:11:00;;;;;;;42.63;3.97;;;;;;;;;;4981041;28;20054;-59
2022/02/18 05:13:26;;;;;;;39.95;3.47;;;;;;;;;;4981315;28;20560;-60
2022/02/18 05:15:52;;;;;;;46.53;3.58;;;;;;;;;;4983071;28;20271;-58
2022/02/18 05:18:17;;;;;;;18.10;2.38;;;;;;;;;;4980893;28;20053;-58
2022/02/18 05:20:43;;;;;;;22.73;2.28;;;;;;;;;;4986901;28;20037;-59
2022/02/18 05:23:08;;;;;;;28.05;2.67;;;;;;;;;;4985484;28;20039;-59
2022/02/18 05:25:34;;;;;;;19.45;2.40;;;;;;;;;;4981427;28;20050;-58
2022/02/18 05:28:04;;;;;;;9.68;1.60;;;;;;;;;;4984088;28;20529;-59
2022/02/18 05:30:33;;;;;;;9.00;1.08;;;;;;;;;;4982365;28;20133;-59
2022/02/18 05:32:58;;;;;;;4.03;0.43;;;;;;;;;;4980088;28;20029;-58
2022/02/18 05:35:24;;;;;;;8.40;0.93;;;;;;;;;;4978156;28;20437;-57
2022/02/18 05:37:49;;;;;;;1.75;0.43;;;;;;;;;;4979568;28;21642;-58
2022/02/18 05:40:15;;;;;;;4.82;0.50;;;;;;;;;;4981166;28;20042;-59
2022/02/18 05:42:41;;;;;;;5.70;0.93;;;;;;;;;;4979243;28;20049;-58
2022/02/18 05:45:07;;;;;;;0.43;0.25;;;;;;;;;;4983346;28;20101;-59
2022/02/18 05:47:36;;;;;;;0.68;0.20;;;;;;;;;;5017048;28;20421;-59
2022/02/18 05:50:05;;;;;;;2.13;0.57;;;;;;;;;;4982525;28;20026;-58
2022/02/18 05:52:30;;;;;;;5.22;0.77;;;;;;;;;;4976196;28;20029;-59
2022/02/18 05:54:56;;;;;;;1.58;0.50;;;;;;;;;;4980251;28;20030;-59
2022/02/18 05:57:21;;;;;;;3.25;0.30;;;;;;;;;;4980303;28;20030;-59
2022/02/18 05:59:47;;;;;;;1.45;0.30;;;;;;;;;;4984620;28;20035;-56
2022/02/18 06:02:12;;;;;;;0.52;0.20;;;;;;;;;;4982854;28;20489;-58
2022/02/18 06:04:38;;;;;;;4.03;0.52;;;;;;;;;;4987309;28;20184;-58
2022/02/18 06:07:03;;;;;;;0.52;0.30;;;;;;;;;;4984075;28;20018;-58
2022/02/18 06:09:29;;;;;;;1.42;0.22;;;;;;;;;;4979231;28;20089;-58
2022/02/18 06:11:55;;;;;;;2.10;0.40;;;;;;;;;;4976784;28;20034;-57
2022/02/18 06:14:21;;;;;;;2.17;0.38;;;;;;;;;;4980983;28;20050;-60
2022/02/18 06:16:46;;;;;;;6.20;0.80;;;;;;;;;;4982962;28;20489;-58
2022/02/18 06:19:12;;;;;;;5.72;0.52;;;;;;;;;;4981079;28;20034;-58
2022/02/18 06:21:40;;;;;;;5.03;0.43;;;;;;;;;;4981551;28;20030;-59
2022/02/18 06:24:09;;;;;;;3.50;0.55;;;;;;;;;;4975225;28;20030;-59
2022/02/18 06:26:34;;;;;;;4.72;0.40;;;;;;;;;;4980341;28;20026;-59
2022/02/18 06:29:00;;;;;;;8.82;1.10;;;;;;;;;;4978333;28;20031;-58
2022/02/18 06:31:25;;;;;;;3.58;0.30;;;;;;;;;;4977623;28;20092;-60
2022/02/18 06:33:51;;;;;;;2.38;0.22;;;;;;;;;;4978206;28;20034;-59
2022/02/18 06:36:16;;;;;;;4.32;0.50;;;;;;;;;;4993410;28;20051;-59
2022/02/18 06:38:44;;;;;;;4.78;0.47;;;;;;;;;;4977348;28;20038;-58
2022/02/18 06:41:13;;;;;;;8.18;0.60;;;;;;;;;;4987612;28;20049;-59
2022/02/18 06:43:39;;;;;;;1.98;0.30;;;;;;;;;;4976824;28;20062;-59
2022/02/18 06:46:04;;;;;;;5.85;0.40;;;;;;;;;;4982107;28;20568;-58
2022/02/18 06:48:30;;;;;;;9.10;0.98;;;;;;;;;;4981367;28;20089;-59
2022/02/18 06:50:56;;;;;;;1.88;0.32;;;;;;;;;;4979408;28;20406;-59
2022/02/18 06:53:22;;;;;;;3.70;0.50;;;;;;;;;;4983166;28;20049;-57
2022/02/18 06:55:47;;;;;;;3.97;0.60;;;;;;;;;;4980841;28;20073;-58
2022/02/18 06:58:13;;;;;;;5.10;0.65;;;;;;;;;;4976136;28;20052;-58
2022/02/18 07:00:41;;;;;;;4.10;0.50;;;;;;;;;;4976415;28;20026;-59
2022/02/18 07:03:07;;;;;;;6.25;0.75;;;;;;;;;;4979871;28;20042;-59
2022/02/18 07:05:33;;;;;;;6.60;0.90;;;;;;;;;;4984335;28;20374;-59
2022/02/18 07:07:59;;;;;;;9.10;0.90;;;;;;;;;;4978079;28;20069;-59
2022/02/18 07:10:25;;;;;;;9.63;2.35;;;;;;;;;;4982096;28;20034;-59
2022/02/18 07:12:50;;;;;;;6.50;0.70;;;;;;;;;;4981205;28;20489;-58
2022/02/18 07:15:16;;;;;;;8.35;1.70;;;;;;;;;;4982104;28;20050;-58
2022/02/18 07:17:41;;;;;;;17.77;2.05;;;;;;;;;;4979811;28;20450;-58
2022/02/18 07:20:09;;;;;;;16.10;1.73;;;;;;;;;;4980369;28;20093;-59
2022/02/18 07:22:36;;;;;;;15.98;1.67;;;;;;;;;;4986310;28;20088;-58
2022/02/18 07:25:03;;;;;;;11.20;1.17;;;;;;;;;;4982668;28;20385;-58
2022/02/18 07:27:28;;;;;;;7.22;1.02;;;;;;;;;;4980307;28;20034;-59
2022/02/18 07:29:54;;;;;;;15.95;1.20;;;;;;;;;;4977726;28;20038;-57
2022/02/18 07:32:24;;;;;;;18.77;1.33;;;;;;;;;;4977688;28;20121;-59
2022/02/18 07:34:50;;;;;;;22.77;1.95;;;;;;;;;;4979780;28;20031;-58
2022/02/18 07:37:15;;;;;;;20.48;1.45;;;;;;;;;;4979896;28;20039;-58
2022/02/18 07:39:41;;;;;;;28.63;2.95;;;;;;;;;;4978091;28;20042;-58
2022/02/18 07:42:07;;;;;;;15.80;2.13;;;;;;;;;;4975676;28;20462;-58
2022/02/18 07:44:32;;;;;;;14.60;1.67;;;;;;;;;;4987152;28;20038;-58
2022/02/18 07:46:58;;;;;;;24.23;2.35;;;;;;;;;;4975988;28;20081;-59
2022/02/18 07:49:24;;;;;;;33.70;2.63;;;;;;;;;;4977832;28;20026;-58
2022/02/18 07:51:49;;;;;;;24.90;2.88;;;;;;;;;;4981701;28;20038;-58
2022/02/18 07:54:15;;;;;;;20.70;2.47;;;;;;;;;;4976948;28;20038;-58
2022/02/18 07:56:41;;;;;;;24.15;3.10;;;;;;;;;;4983883;28;20477;-58
2022/02/18 07:59:06;;;;;;;17.17;2.45;;;;;;;;;;4982388;28;20027;-59
2022/02/18 08:01:32;;;;;;;18.92;3.35;;;;;;;;;;4979701;28;20085;-58
2022/02/18 08:03:57;;;;;;;39.08;3.53;;;;;;;;;;5006394;28;20031;-60
2022/02/18 08:06:23;;;;;;;26.60;2.67;;;;;;;;;;4978269;28;20030;-59
2022/02/18 08:08:48;;;;;;;19.58;2.20;;;;;;;;;;4980432;28;20045;-59
2022/02/18 08:11:16;;;;;;;19.30;3.05;;;;;;;;;;4974230;28;20034;-59
2022/02/18 08:13:42;;;;;;;31.90;3.88;;;;;;;;;;4978470;28;20061;-59
2022/02/18 08:16:08;;;;;;;25.27;2.47;;;;;;;;;;4980329;28;20022;-60
2022/02/18 08:18:34;;;;;;;23.25;3.60;;;;;;;;;;4976039;28;20038;-60
2022/02/18 08:21:00;;;;;;;25.55;3.53;;;;;;;;;;4978481;28;20037;-59
2022/02/18 08:23:25;;;;;;;25.73;3.05;;;;;;;;;;4983006;28;20027;-59
2022/02/18 08:25:51;;;;;;;17.48;2.75;;;;;;;;;;4987984;28;20065;-59
2022/02/18 08:28:17;;;;;;;21.63;2.97;;;;;;;;;;4982638;28;20041;-60
2022/02/18 08:30:44;;;;;;;23.30;2.33;;;;;;;;;;4983034;28;20113;-59
2022/02/18 08:33:11;;;;;;;23.63;3.25;;;;;;;;;;4978359;28;20105;-60
2022/02/18 08:35:36;;;;;;;31.55;3.50;;;;;;;;;;4987314;28;20046;-59
2022/02/18 08:38:04;;;;;;;28.92;3.67;;;;;;;;;;4988864;28;20033;-59
2022/02/18 08:40:30;;;;;;;29.52;3.88;;;;;;;;;;4985500;28;20070;-62
2022/02/18 08:42:56;;;;;;;37.28;4.72;;;;;;;;;;4987964;28;20069;-60
2022/02/18 08:45:21;;;;;;;30.35;3.50;;;;;;;;;;4984203;28;20505;-60
2022/02/18 08:47:47;;;;;;;28.00;3.88;;;;;;;;;;4986885;28;20023;-60
2022/02/18 08:50:12;;;;;;;32.33;3.72;;;;;;;;;;4985486;28;20042;-60
2022/02/18 08:52:39;;;;;;;43.60;4.03;;;;;;;;;;4984912;28;20042;-61
2022/02/18 08:55:06;;;;;;;32.13;5.10;;;;;;;;;;4977567;28;20038;-61
2022/02/18 08:57:32;;;;;;;47.30;4.53;;;;;;;;;;4983494;28;20033;-61
2022/02/18 08:59:58;;;;;;;28.75;3.00;;;;;;;;;;4983605;28;20034;-60
2022/02/18 09:02:24;;;;;;;43.50;4.10;;;;;;;;;;4976214;28;20027;-61
2022/02/18 09:04:51;;;;;;;33.72;3.97;;;;;;;;;;4994402;28;20038;-61
2022/02/18 09:07:16;;;;;;;50.22;6.30;;;;;;;;;;4984540;28;20026;-60
2022/02/18 09:09:43;;;;;;;36.00;4.43;;;;;;;;;;4976775;28;20045;-60
2022/02/18 09:12:08;;;;;;;43.88;6.05;;;;;;;;;;4987235;28;20030;-60
2022/02/18 09:14:34;;;;;;;36.03;4.57;;;;;;;;;;4992378;28;20096;-59
2022/02/18 09:16:59;;;;;;;33.00;3.30;;;;;;;;;;4986533;28;20113;-61
2022/02/18 09:19:25;;;;;;;16.33;2.15;;;;;;;;;;4985560;28;20129;-59
2022/02/18 09:21:51;;;;;;;19.58;1.58;;;;;;;;;;4994617;28;20536;-59
2022/02/18 09:24:16;;;;;;;9.18;1.75;;;;;;;;;;4985959;28;20145;-57
2022/02/18 09:26:42;;;;;;;9.40;2.05;;;;;;;;;;4990031;28;20022;-56
2022/02/18 09:29:07;;;;;;;7.85;2.20;;;;;;;;;;4984395;28;20105;-59
2022/02/18 09:31:33;;;;;;;8.60;1.65;;;;;;;;;;4981647;28;20112;-58
2022/02/18 09:33:59;;;;;;;8.27;1.45;;;;;;;;;;4973597;28;20044;-59
2022/02/18 09:36:24;;;;;;;4.95;0.70;;;;;;;;;;4985612;28;20417;-60
2022/02/18 09:38:50;;;;;;;0.50;0.40;;;;;;;;;;4981715;28;20030;-58
2022/02/18 09:41:15;;;;;;;0.98;0.50;;;;;;;;;;4986046;28;20153;-58
2022/02/18 09:43:41;;;;;;;4.15;0.80;;;;;;;;;;4979413;28;20034;-59
2022/02/18 09:46:08;;;;;;;0.88;0.50;;;;;;;;;;4982998;28;20495;-59
2022/02/18 09:48:35;;;;;;;1.95;0.55;;;;;;;;;;4987259;28;20109;-55
2022/02/18 09:51:01;;;;;;;2.83;0.50;;;;;;;;;;4983324;28;20084;-59
2022/02/18 09:53:27;;;;;;;1.85;0.40;;;;;;;;;;4983026;28;20456;-59
2022/02/18 09:55:55;;;;;;;0.73;0.32;;;;;;;;;;4985079;28;20082;-51
2022/02/18 09:58:22;;;;;;;1.13;0.30;;;;;;;;;;4985257;28;20042;-59
2022/02/18 10:00:48;;;;;;;2.13;0.50;;;;;;;;;;4985987;28;20030;-60
2022/02/18 10:03:14;;;;;;;1.33;0.82;;;;;;;;;;4981721;28;20184;-60
2022/02/18 10:05:41;;;;;;;0.20;0.20;;;;;;;;;;4980209;28;20488;-58
2022/02/18 10:08:11;;;;;;;0.30;0.20;;;;;;;;;;4981289;28;20070;-58
2022/02/18 10:10:39;;;;;;;0.35;0.32;;;;;;;;;;4981508;28;20037;-59
2022/02/18 10:13:05;;;;;;;0.30;0.30;;;;;;;;;;4985573;28;20030;-58
2022/02/18 10:15:44;;;;;;;0.22;0.22;;;;;;;;;;4985671;28;20041;-53
2022/02/18 10:18:10;;;;;;;0.47;0.30;;;;;;;;;;4984975;28;20169;-58
2022/02/18 10:20:41;;;;;;;0.57;0.40;;;;;;;;;;4983218;28;20133;-59
2022/02/18 10:23:08;;;;;;;0.65;0.43;;;;;;;;;;4979223;28;20045;-58
2022/02/18 10:25:36;;;;;;;0.63;0.50;;;;;;;;;;4979335;28;20088;-60
2022/02/18 10:28:08;;;;;;;0.85;0.40;;;;;;;;;;4981716;28;20084;-60
2022/02/18 10:30:34;;;;;;;0.85;0.32;;;;;;;;;;4982990;28;20551;-58
2022/02/18 10:33:20;;;;;;;0.70;0.40;;;;;;;;;;4986702;28;20316;-58
2022/02/18 10:35:46;;;;;;;0.77;0.35;;;;;;;;;;4982579;28;20493;-56
2022/02/18 10:38:13;;;;;;;0.30;0.30;;;;;;;;;;4982534;28;20041;-54
2022/02/18 10:40:49;;;;;;;0.35;0.30;;;;;;;;;;4982593;28;20034;-53
2022/02/18 10:43:25;;;;;;;1.40;0.60;;;;;;;;;;4982734;28;20469;-54
2022/02/18 10:45:59;;;;;;;0.95;0.45;;;;;;;;;;4979607;28;20023;-55
2022/02/18 10:48:34;;;;;;;1.30;0.40;;;;;;;;;;4979867;28;20382;-54
2022/02/18 10:51:07;;;;;;;0.35;0.30;;;;;;;;;;4979141;28;20473;-55
2022/02/18 10:53:43;;;;;;;2.33;1.23;;;;;;;;;;4979400;28;20030;-55
2022/02/18 10:56:12;;;;;;;7.25;0.82;;;;;;;;;;4976338;28;20657;-56
2022/02/18 10:58:43;;;;;;;1.77;0.65;;;;;;;;;;4979812;28;20140;-50
2022/02/18 11:01:27;;;;;;;0.80;0.50;;;;;;;;;;4979249;28;20033;-54
2022/02/18 11:04:04;;;;;;;0.28;0.25;;;;;;;;;;4978718;28;20275;-52
2022/02/18 11:06:34;;;;;;;0.17;0.17;;;;;;;;;;4978899;28;20541;-52
2022/02/18 11:09:07;;;;;;;0.47;0.38;;;;;;;;;;4982961;28;20054;-51
2022/02/18 11:11:44;;;;;;;1.55;0.50;;;;;;;;;;4985015;28;20492;-49
2022/02/18 11:14:17;;;;;;;1.42;0.50;;;;;;;;;;4985839;28;20038;-54
2022/02/18 11:16:55;;;;;;;3.38;0.57;;;;;;;;;;4982959;28;20022;-51
2022/02/18 11:19:21;;;;;;;0.60;0.43;;;;;;;;;;4983452;28;20082;-55
2022/02/18 11:21:47;;;;;;;0.32;0.30;;;;;;;;;;4985182;28;20057;-49
2022/02/18 11:24:16;;;;;;;2.72;0.77;;;;;;;;;;4986173;28;20027;-50
2022/02/18 11:26:44;;;;;;;0.63;0.50;;;;;;;;;;4986582;28;20401;-49
2022/02/18 11:29:10;;;;;;;1.15;0.50;;;;;;;;;;4985884;28;20077;-50
2022/02/18 11:31:35;;;;;;;5.07;0.73;;;;;;;;;;4985102;28;20030;-56
2022/02/18 11:34:16;;;;;;;12.48;1.80;;;;;;;;;;4985411;28;20088;-54
2022/02/18 11:37:00;;;;;;;7.65;0.70;;;;;;;;;;4986683;28;20050;-50
2022/02/18 11:39:55;;;;;;;8.55;0.93;;;;;;;;;;4986273;28;20579;-49
2022/02/18 11:43:09;;;;;;;3.85;1.20;;;;;;;;;;4984023;28;20030;-54
2022/02/18 11:45:35;;;;;;;5.15;0.88;;;;;;;;;;4982061;28;20101;-56
2022/02/18 11:48:00;;;;;;;6.63;1.10;;;;;;;;;;4981085;28;20129;-53
2022/02/18 11:50:29;;;;;;;5.07;1.08;;;;;;;;;;4981008;28;20541;-54
2022/02/18 11:52:56;;;;;;;4.50;1.33;;;;;;;;;;4976221;28;20160;-53
2022/02/18 11:55:27;;;;;;;3.38;0.73;;;;;;;;;;4980718;28;20501;-52
2022/02/18 11:58:11;;;;;;;3.10;0.82;;;;;;;;;;4985203;28;20038;-52
2022/02/18 12:00:48;;;;;;;2.05;1.15;;;;;;;;;;4983406;28;20055;-52
2022/02/18 12:03:19;;;;;;;1.10;0.50;;;;;;;;;;4980961;28;20034;-55
2022/02/18 12:06:07;;;;;;;9.75;1.00;;;;;;;;;;4980882;28;20485;-53
2022/02/18 12:08:35;;;;;;;9.02;0.88;;;;;;;;;;4976386;28;20097;-54
2022/02/18 12:11:12;;;;;;;4.47;1.05;;;;;;;;;;4981631;28;20429;-55
2022/02/18 12:13:54;;;;;;;11.82;1.52;;;;;;;;;;4981254;28;20057;-51
2022/02/18 12:16:21;;;;;;;13.23;2.03;;;;;;;;;;4979108;28;20496;-54
2022/02/18 12:19:05;;;;;;;13.68;1.27;;;;;;;;;;4990135;28;20038;-51
2022/02/18 12:21:31;;;;;;;8.07;1.52;;;;;;;;;;4984103;28;20026;-54
2022/02/18 12:23:57;;;;;;;17.17;2.58;;;;;;;;;;4985838;28;20413;-56
2022/02/18 12:26:27;;;;;;;7.28;1.50;;;;;;;;;;4988394;28;20042;-54
2022/02/18 12:29:17;;;;;;;13.35;2.38;;;;;;;;;;4983848;28;20065;-52
2022/02/18 12:31:53;;;;;;;5.82;1.27;;;;;;;;;;4989483;28;20389;-49
2022/02/18 12:34:28;;;;;;;18.65;2.28;;;;;;;;;;4986468;28;20085;-54
2022/02/18 12:36:55;;;;;;;15.07;1.48;;;;;;;;;;4987803;28;20125;-53
2022/02/18 12:39:39;;;;;;;11.20;1.83;;;;;;;;;;4985272;28;20027;-53
2022/02/18 12:42:13;;;;;;;11.57;1.55;;;;;;;;;;4980455;28;20392;-52
2022/02/18 12:44:51;;;;;;;5.43;1.30;;;;;;;;;;4982044;28;20671;-55
2022/02/18 12:47:23;;;;;;;8.90;1.80;;;;;;;;;;4980651;28;20022;-57
2022/02/18 12:49:49;;;;;;;15.57;2.58;;;;;;;;;;4981754;28;20046;-56
2022/02/18 12:52:16;;;;;;;12.30;1.85;;;;;;;;;;4984754;28;20037;-55
2022/02/18 12:54:46;;;;;;;6.30;1.55;;;;;;;;;;4984415;28;20045;-55
2022/02/18 12:57:40;;;;;;;4.68;1.20;;;;;;;;;;4990109;28;20022;-58
2022/02/18 13:00:12;;;;;;;5.30;1.67;;;;;;;;;;4988530;28;20489;-57
2022/02/18 13:02:49;;;;;;;11.98;2.42;;;;;;;;;;4986871;28;20145;-56
2022/02/18 13:05:20;;;;;;;11.00;1.77;;;;;;;;;;4984453;28;20076;-56
2022/02/18 13:07:47;;;;;;;19.53;2.93;;;;;;;;;;4978051;28;20401;-56
2022/02/18 13:10:21;;;;;;;10.48;2.35;;;;;;;;;;4986908;28;20033;-56
2022/02/18 13:12:49;;;;;;;8.32;1.80;;;;;;;;;;4988114;28;20152;-53
2022/02/18 13:15:17;;;;;;;13.70;2.10;;;;;;;;;;4987043;28;20046;-58
2022/02/18 13:17:48;;;;;;;10.25;1.85;;;;;;;;;;4987407;28;20041;-58
2022/02/18 13:20:34;;;;;;;9.35;1.48;;;;;;;;;;4981620;28;20038;-55
2022/02/18 13:23:00;;;;;;;8.13;1.40;;;;;;;;;;4984399;28;20269;-57
2022/02/18 13:25:29;;;;;;;9.82;1.50;;;;;;;;;;4989427;28;20655;-56
2022/02/18 13:27:58;;;;;;;14.38;1.75;;;;;;;;;;4982561;28;20501;-55
2022/02/18 13:30:26;;;;;;;18.02;2.03;;;;;;;;;;4988363;28;20054;-53
2022/02/18 13:32:58;;;;;;;9.68;1.75;;;;;;;;;;4977006;28;20284;-54
2022/02/18 13:35:24;;;;;;;5.85;1.63;;;;;;;;;;4980250;28;20086;-57
2022/02/18 13:37:50;;;;;;;10.80;1.40;;;;;;;;;;4977345;28;20054;-62
2022/02/18 13:40:16;;;;;;;9.00;1.50;;;;;;;;;;4986825;28;20512;-58
2022/02/18 13:42:55;;;;;;;12.57;1.50;;;;;;;;;;4987682;28;20445;-58
2022/02/18 13:45:21;;;;;;;5.13;1.25;;;;;;;;;;4984916;28;20031;-53
2022/02/18 13:47:47;;;;;;;11.45;1.70;;;;;;;;;;4983917;28;20024;-58
2022/02/18 13:50:13;;;;;;;4.22;0.68;;;;;;;;;;4979569;28;20031;-55
2022/02/18 13:54:03;;;;;;;2.95;0.85;;;;;;;;;;5112214;27;20127;-54
2022/02/18 13:56:34;;;;;;;10.32;1.73;;;;;;;;;;5126064;27;20042;-54
2022/02/18 13:59:28;;;;;;;5.88;1.00;;;;;;;;;;5115257;27;20031;-55
2022/02/18 14:01:56;;;;;;;6.90;1.27;;;;;;;;;;5118759;27;20030;-54
2022/02/18 14:04:23;;;;;;;6.82;0.75;;;;;;;;;;5121010;27;20034;-59
2022/02/18 14:07:08;;;;;;;5.18;1.23;;;;;;;;;;5116006;27;20027;-54
2022/02/18 14:09:51;;;;;;;4.32;1.95;;;;;;;;;;5117694;27;20036;-59
2022/02/18 14:12:19;;;;;;;3.78;1.15;;;;;;;;;;5111009;27;20534;-56
2022/02/18 14:15:02;;;;;;;13.93;1.30;;;;;;;;;;5126960;27;20114;-51
2022/02/18 14:17:28;;;;;;;5.55;1.23;;;;;;;;;;5120748;27;20035;-52
2022/02/18 14:19:56;;;;;;;5.80;1.00;;;;;;;;;;5120065;27;20088;-54
2022/02/18 14:22:32;;;;;;;15.90;1.88;;;;;;;;;;5118441;27;20050;-56
2022/02/18 14:25:00;;;;;;;10.55;1.45;;;;;;;;;;5126427;27;20034;-51
2022/02/18 14:27:26;;;;;;;9.85;1.42;;;;;;;;;;5123818;27;20163;-52
2022/02/18 14:30:02;;;;;;;2.90;0.95;;;;;;;;;;5123258;27;20608;-53
2022/02/18 14:32:36;;;;;;;5.38;2.20;;;;;;;;;;5125760;27;20015;-52
2022/02/18 14:35:13;;;;;;;3.75;1.10;;;;;;;;;;5122361;27;20452;-52
2022/02/18 14:37:40;;;;;;;3.00;0.90;;;;;;;;;;5110542;27;20024;-53
2022/02/18 14:40:15;;;;;;;5.38;0.52;;;;;;;;;;5099346;28;20035;-53
2022/02/18 14:42:42;;;;;;;6.18;0.88;;;;;;;;;;5096909;28;20028;-55
2022/02/18 14:45:09;;;;;;;4.00;0.80;;;;;;;;;;5105909;28;20032;-55